Time,TemperatureF,DewpointF,PressureIn,WindDirection,WindDirectionDegrees,WindSpeedMPH,WindSpeedGustMPH,Humidity,HourlyPrecipIn,Conditions,Clouds,dailyrainin,SolarRadiationWatts/m^2,SoftwareType,DateUTC
2013-05-27 00:21:00,43.0,36.0,-100.00,SE,145,3.0,8.0,76,0.00,,,0.01,1.000000,,2013-05-27 07:21:00,
2013-05-27 00:31:00,43.0,36.0,-100.00,SE,145,3.0,8.0,76,0.00,,,0.01,1.000000,,2013-05-27 07:31:00,
2013-05-27 00:41:00,43.0,36.0,-100.00,SE,145,3.0,8.0,76,0.00,,,0.01,1.000000,,2013-05-27 07:41:00,
2013-05-27 00:52:00,43.0,36.0,-100.00,SE,145,3.0,8.0,76,0.00,,,0.01,1.000000,,2013-05-27 07:52:00,
2013-05-27 01:21:00,43.0,36.0,-100.00,West,264,4.0,6.0,77,0.00,,,0.01,1.000000,,2013-05-27 08:21:00,
2013-05-27 01:32:00,43.0,36.0,-100.00,West,264,4.0,6.0,77,0.00,,,0.01,1.000000,,2013-05-27 08:32:00,
2013-05-27 01:42:00,43.0,36.0,-100.00,West,264,4.0,6.0,77,0.00,,,0.01,1.000000,,2013-05-27 08:42:00,
2013-05-27 01:52:00,43.0,36.0,-100.00,West,264,4.0,6.0,77,0.00,,,0.01,1.000000,,2013-05-27 08:52:00,
2013-05-27 02:21:00,43.0,38.0,-100.00,SSE,163,3.0,5.0,81,0.00,,,0.01,1.000000,,2013-05-27 09:21:00,
2013-05-27 02:33:00,43.0,38.0,-100.00,SSE,163,3.0,5.0,81,0.00,,,0.01,1.000000,,2013-05-27 09:33:00,
2013-05-27 02:42:00,43.0,38.0,-100.00,SSE,163,3.0,5.0,81,0.00,,,0.01,1.000000,,2013-05-27 09:42:00,
2013-05-27 02:52:00,43.0,38.0,-100.00,SSE,163,3.0,5.0,81,0.00,,,0.01,1.000000,,2013-05-27 09:52:00,
2013-05-27 03:22:00,44.0,38.0,-100.00,SSW,197,5.0,9.0,79,0.00,,,0.01,1.000000,,2013-05-27 10:22:00,
2013-05-27 03:32:00,44.0,38.0,-100.00,SSW,197,5.0,9.0,79,0.00,,,0.01,1.000000,,2013-05-27 10:32:00,
2013-05-27 03:42:00,44.0,38.0,-100.00,SSW,197,5.0,9.0,79,0.00,,,0.01,1.000000,,2013-05-27 10:42:00,
2013-05-27 03:52:00,44.0,38.0,-100.00,SSW,197,5.0,9.0,79,0.00,,,0.01,1.000000,,2013-05-27 10:52:00,
2013-05-27 04:21:00,45.0,38.0,-100.00,SSW,201,4.0,9.0,76,0.00,,,0.01,1.000000,,2013-05-27 11:21:00,
2013-05-27 04:32:00,45.0,38.0,-100.00,SSW,201,4.0,9.0,76,0.00,,,0.01,1.000000,,2013-05-27 11:32:00,
2013-05-27 04:42:00,45.0,38.0,-100.00,SSW,201,4.0,9.0,76,0.00,,,0.01,1.000000,,2013-05-27 11:42:00,
2013-05-27 04:51:00,45.0,38.0,-100.00,SSW,201,4.0,9.0,76,0.00,,,0.01,1.000000,,2013-05-27 11:51:00,
2013-05-27 05:21:00,45.0,38.0,-100.00,WSW,242,4.0,9.0,77,0.00,,,0.01,1.000000,,2013-05-27 12:21:00,
2013-05-27 05:32:00,45.0,38.0,-100.00,WSW,242,4.0,9.0,77,0.00,,,0.01,1.000000,,2013-05-27 12:32:00,
2013-05-27 05:42:00,45.0,38.0,-100.00,WSW,242,4.0,9.0,77,0.00,,,0.01,1.000000,,2013-05-27 12:42:00,
2013-05-27 05:52:00,45.0,38.0,-100.00,WSW,242,4.0,9.0,77,0.00,,,0.01,1.000000,,2013-05-27 12:52:00,
2013-05-27 06:21:00,43.0,40.0,-100.00,SW,217,6.0,13.0,90,0.01,,,0.02,1.000000,,2013-05-27 13:21:00,
2013-05-27 06:32:00,43.0,40.0,-100.00,SW,217,6.0,13.0,90,0.01,,,0.02,1.000000,,2013-05-27 13:32:00,
2013-05-27 06:41:00,43.0,40.0,-100.00,SW,217,6.0,13.0,90,0.01,,,0.02,1.000000,,2013-05-27 13:41:00,
2013-05-27 06:52:00,43.0,40.0,-100.00,SW,217,6.0,13.0,90,0.01,,,0.02,1.000000,,2013-05-27 13:52:00,
2013-05-27 07:21:00,43.0,41.0,-100.00,SSW,206,6.0,11.0,94,0.06,,,0.08,11.000000,,2013-05-27 14:21:00,
2013-05-27 07:32:00,43.0,41.0,-100.00,SSW,206,6.0,11.0,94,0.06,,,0.08,11.000000,,2013-05-27 14:32:00,
2013-05-27 07:42:00,43.0,41.0,-100.00,SSW,206,6.0,11.0,94,0.06,,,0.08,11.000000,,2013-05-27 14:42:00,
2013-05-27 07:51:00,43.0,41.0,-100.00,SSW,206,6.0,11.0,94,0.06,,,0.08,11.000000,,2013-05-27 14:51:00,
2013-05-27 08:21:00,43.0,42.0,-100.00,South,180,5.0,13.0,95,0.04,,,0.12,39.000000,,2013-05-27 15:21:00,
2013-05-27 08:33:00,43.0,42.0,-100.00,South,180,5.0,13.0,95,0.04,,,0.12,39.000000,,2013-05-27 15:33:00,
2013-05-27 08:43:00,43.0,42.0,-100.00,South,180,5.0,13.0,95,0.04,,,0.12,39.000000,,2013-05-27 15:43:00,
2013-05-27 08:53:00,43.0,42.0,-100.00,South,180,5.0,13.0,95,0.04,,,0.12,39.000000,,2013-05-27 15:53:00,
2013-05-27 09:23:00,44.0,42.0,-100.00,South,182,6.0,12.0,94,0.01,,,0.12,113.000000,,2013-05-27 16:23:00,
2013-05-27 09:33:00,44.0,42.0,-100.00,South,182,6.0,12.0,94,0.01,,,0.12,113.000000,,2013-05-27 16:33:00,
2013-05-27 09:42:00,44.0,42.0,-100.00,South,182,6.0,12.0,94,0.01,,,0.12,113.000000,,2013-05-27 16:42:00,
2013-05-27 09:52:00,44.0,42.0,-100.00,South,182,6.0,12.0,94,0.01,,,0.12,113.000000,,2013-05-27 16:52:00,
2013-05-27 10:22:00,45.0,43.0,-100.00,South,189,7.0,14.0,93,0.03,,,0.15,183.000000,,2013-05-27 17:22:00,
2013-05-27 10:32:00,45.0,43.0,-100.00,South,189,7.0,14.0,93,0.03,,,0.15,183.000000,,2013-05-27 17:32:00,
2013-05-27 10:43:00,45.0,43.0,-100.00,South,189,7.0,14.0,93,0.03,,,0.15,183.000000,,2013-05-27 17:43:00,
2013-05-27 10:52:00,45.0,43.0,-100.00,South,189,7.0,14.0,93,0.03,,,0.15,183.000000,,2013-05-27 17:52:00,
2013-05-27 11:21:00,48.0,44.0,-100.00,South,186,9.0,20.0,87,0.00,,,0.15,451.000000,,2013-05-27 18:21:00,
2013-05-27 11:32:00,48.0,44.0,-100.00,South,186,9.0,20.0,87,0.00,,,0.15,451.000000,,2013-05-27 18:32:00,
2013-05-27 11:42:00,48.0,44.0,-100.00,South,186,9.0,20.0,87,0.00,,,0.15,451.000000,,2013-05-27 18:42:00,
2013-05-27 11:52:00,48.0,44.0,-100.00,South,186,9.0,20.0,87,0.00,,,0.15,451.000000,,2013-05-27 18:52:00,
2013-05-27 12:21:00,47.0,43.0,-100.00,South,185,7.0,17.0,87,0.01,,,0.16,220.000000,,2013-05-27 19:21:00,
2013-05-27 12:32:00,47.0,43.0,-100.00,South,185,7.0,17.0,87,0.01,,,0.16,220.000000,,2013-05-27 19:32:00,
2013-05-27 12:41:00,47.0,43.0,-100.00,South,185,7.0,17.0,87,0.01,,,0.16,220.000000,,2013-05-27 19:41:00,
2013-05-27 12:52:00,47.0,43.0,-100.00,South,185,7.0,17.0,87,0.01,,,0.16,220.000000,,2013-05-27 19:52:00,
2013-05-27 13:22:00,50.0,46.0,-100.00,South,187,5.0,16.0,87,0.01,,,-99.99,258.000000,,2013-05-27 20:22:00,
2013-05-27 13:32:00,50.0,46.0,-100.00,South,187,5.0,16.0,87,0.01,,,-99.99,258.000000,,2013-05-27 20:32:00,
2013-05-27 13:42:00,50.0,46.0,-100.00,South,187,5.0,16.0,87,0.01,,,-99.99,258.000000,,2013-05-27 20:42:00,
2013-05-27 13:52:00,50.0,46.0,-100.00,South,187,5.0,16.0,87,0.01,,,-99.99,258.000000,,2013-05-27 20:52:00,
2013-05-27 14:21:00,50.0,47.0,-100.00,SSW,207,6.0,14.0,90,0.02,,,0.19,224.000000,,2013-05-27 21:21:00,
2013-05-27 14:33:00,50.0,47.0,-100.00,SSW,207,6.0,14.0,90,0.02,,,0.19,224.000000,,2013-05-27 21:33:00,
2013-05-27 14:43:00,50.0,47.0,-100.00,SSW,207,6.0,14.0,90,0.02,,,0.19,224.000000,,2013-05-27 21:43:00,
2013-05-27 14:53:00,50.0,47.0,-100.00,SSW,207,6.0,14.0,90,0.02,,,0.19,224.000000,,2013-05-27 21:53:00,
2013-05-27 15:22:00,50.0,47.0,-100.00,SW,214,7.0,15.0,88,0.02,,,0.21,232.000000,,2013-05-27 22:22:00,
2013-05-27 15:32:00,50.0,47.0,-100.00,SW,214,7.0,15.0,88,0.02,,,0.21,232.000000,,2013-05-27 22:32:00,
2013-05-27 15:42:00,50.0,47.0,-100.00,SW,214,7.0,15.0,88,0.02,,,0.21,232.000000,,2013-05-27 22:42:00,
2013-05-27 15:52:00,50.0,47.0,-100.00,SW,214,7.0,15.0,88,0.02,,,0.21,232.000000,,2013-05-27 22:52:00,
2013-05-27 16:22:00,56.0,47.0,-100.00,SW,233,14.0,25.0,73,0.00,,,0.21,564.000000,,2013-05-27 23:22:00,
2013-05-27 16:32:00,56.0,47.0,-100.00,SW,233,14.0,25.0,73,0.00,,,0.21,564.000000,,2013-05-27 23:32:00,
2013-05-27 16:42:00,56.0,47.0,-100.00,SW,233,14.0,25.0,73,0.00,,,0.21,564.000000,,2013-05-27 23:42:00,
2013-05-27 16:52:00,56.0,47.0,-100.00,SW,233,14.0,25.0,73,0.00,,,0.21,564.000000,,2013-05-27 23:52:00,
2013-05-27 17:21:00,52.0,44.0,-100.00,SW,226,14.0,26.0,75,0.00,,,0.21,372.000000,,2013-05-28 00:21:00,
2013-05-27 17:31:00,52.0,44.0,-100.00,SW,226,14.0,26.0,75,0.00,,,0.21,372.000000,,2013-05-28 00:31:00,
2013-05-27 17:41:00,52.0,44.0,-100.00,SW,226,14.0,26.0,75,0.00,,,0.21,372.000000,,2013-05-28 00:41:00,
2013-05-27 17:51:00,52.0,44.0,-100.00,SW,226,14.0,26.0,75,0.00,,,0.21,372.000000,,2013-05-28 00:51:00,
2013-05-27 18:21:00,49.0,45.0,-100.00,SW,225,8.0,22.0,85,0.01,,,0.22,106.000000,,2013-05-28 01:21:00,
2013-05-27 18:31:00,49.0,45.0,-100.00,SW,225,8.0,22.0,85,0.01,,,0.22,106.000000,,2013-05-28 01:31:00,
2013-05-27 18:41:00,49.0,45.0,-100.00,SW,225,8.0,22.0,85,0.01,,,0.22,106.000000,,2013-05-28 01:41:00,
2013-05-27 18:52:00,49.0,45.0,-100.00,SW,225,8.0,22.0,85,0.01,,,0.22,106.000000,,2013-05-28 01:52:00,
2013-05-27 19:21:00,46.0,43.0,-100.00,SW,225,6.0,23.0,90,0.05,,,0.27,42.000000,,2013-05-28 02:21:00,
2013-05-27 19:32:00,46.0,43.0,-100.00,SW,225,6.0,23.0,90,0.05,,,0.27,42.000000,,2013-05-28 02:32:00,
2013-05-27 19:41:00,46.0,43.0,-100.00,SW,225,6.0,23.0,90,0.05,,,0.27,42.000000,,2013-05-28 02:41:00,
2013-05-27 19:51:00,46.0,43.0,-100.00,SW,225,6.0,23.0,90,0.05,,,0.27,42.000000,,2013-05-28 02:51:00,
2013-05-27 20:21:00,44.0,42.0,-100.00,SSW,210,7.0,12.0,94,0.08,,,0.35,24.000000,,2013-05-28 03:21:00,
2013-05-27 20:33:00,44.0,42.0,-100.00,SSW,210,7.0,12.0,94,0.08,,,0.35,24.000000,,2013-05-28 03:33:00,
2013-05-27 20:43:00,44.0,42.0,-100.00,SSW,210,7.0,12.0,94,0.08,,,0.35,24.000000,,2013-05-28 03:43:00,
2013-05-27 20:53:00,44.0,42.0,-100.00,SSW,210,7.0,12.0,94,0.08,,,0.35,24.000000,,2013-05-28 03:53:00,
2013-05-27 21:22:00,43.0,41.0,-100.00,WSW,254,5.0,15.0,94,0.10,,,0.45,2.000000,,2013-05-28 04:22:00,
2013-05-27 21:33:00,43.0,41.0,-100.00,WSW,254,5.0,15.0,94,0.10,,,0.45,2.000000,,2013-05-28 04:33:00,
2013-05-27 21:42:00,43.0,41.0,-100.00,WSW,254,5.0,15.0,94,0.10,,,0.45,2.000000,,2013-05-28 04:42:00,
2013-05-27 21:52:00,43.0,41.0,-100.00,WSW,254,5.0,15.0,94,0.10,,,0.45,2.000000,,2013-05-28 04:52:00,
2013-05-27 22:22:00,43.0,40.0,-100.00,West,264,12.0,23.0,88,0.12,,,0.57,1.000000,,2013-05-28 05:22:00,
2013-05-27 22:32:00,43.0,40.0,-100.00,West,264,12.0,23.0,88,0.12,,,0.57,1.000000,,2013-05-28 05:32:00,
2013-05-27 22:42:00,43.0,40.0,-100.00,West,264,12.0,23.0,88,0.12,,,0.57,1.000000,,2013-05-28 05:42:00,
2013-05-27 22:52:00,43.0,40.0,-100.00,West,264,12.0,23.0,88,0.12,,,0.57,1.000000,,2013-05-28 05:52:00,
2013-05-27 23:21:00,42.0,40.0,-100.00,WSW,248,3.0,16.0,93,0.01,,,0.58,1.000000,,2013-05-28 06:21:00,
2013-05-27 23:31:00,42.0,40.0,-100.00,WSW,248,3.0,16.0,93,0.01,,,0.58,1.000000,,2013-05-28 06:31:00,
2013-05-27 23:41:00,42.0,40.0,-100.00,WSW,248,3.0,16.0,93,0.01,,,0.58,1.000000,,2013-05-28 06:41:00,
2013-05-27 23:51:00,42.0,40.0,-100.00,WSW,248,3.0,16.0,93,0.01,,,0.58,1.000000,,2013-05-28 06:51:00,